Time;durP1;ratioP1;P1;durP2;ratioP2;P2;SDS_P1;SDS_P2;PMS_P1;PMS_P2;Temp;Humidity;BMP_temperature;BMP_pressure;BME280_temperature;BME280_humidity;BME280_pressure;Samples;Min_cycle;Max_cycle;Signal;HPM_P1;HPM_P2
2021/08/08 08:04:45;;;;;;;10.63;3.80;;;;;;;25.30;45.88;98949.47;5149503;27;20148;-44
2021/08/08 08:07:11;;;;;;;9.60;3.63;;;;;;;25.23;46.10;98950.88;5148499;27;20565;-45
2021/08/08 08:09:38;;;;;;;7.93;3.50;;;;;;;25.24;46.75;98954.38;5139652;27;20091;-45
2021/08/08 08:12:05;;;;;;;6.72;3.60;;;;;;;25.20;46.15;98953.72;5009124;27;61129;-44
2021/08/08 08:14:32;;;;;;;5.95;3.15;;;;;;;25.24;46.51;98957.91;4917263;27;20584;-43
2021/08/08 08:16:58;;;;;;;7.28;3.20;;;;;;;25.26;46.19;98956.00;5108148;28;20104;-44
2021/08/08 08:19:25;;;;;;;8.23;3.53;;;;;;;25.29;45.53;98961.09;5125557;28;20043;-44
2021/08/08 08:21:53;;;;;;;6.93;3.53;;;;;;;25.31;44.81;98963.66;5121978;28;20101;-44
2021/08/08 08:24:20;;;;;;;8.70;4.10;;;;;;;25.33;45.14;98957.25;5119423;27;20043;-43
2021/08/08 08:26:47;;;;;;;8.98;4.32;;;;;;;25.37;45.06;98954.38;5118044;28;20051;-45
2021/08/08 08:29:14;;;;;;;8.00;4.47;;;;;;;25.41;45.58;98955.84;5117152;28;20093;-44
2021/08/08 08:31:40;;;;;;;8.85;4.40;;;;;;;25.43;45.73;98957.44;5116751;28;20067;-44
2021/08/08 08:34:07;;;;;;;11.27;5.03;;;;;;;25.48;45.28;98959.78;5120399;28;20036;-44
2021/08/08 08:36:35;;;;;;;34.97;7.28;;;;;;;25.49;45.70;98965.03;5112684;28;20096;-44
2021/08/08 08:39:03;;;;;;;14.13;5.18;;;;;;;25.50;45.81;98968.53;5103497;28;20594;-44
2021/08/08 08:41:31;;;;;;;13.60;4.57;;;;;;;25.51;45.81;98970.22;5109873;28;21802;-43
2021/08/08 08:43:57;;;;;;;10.35;4.18;;;;;;;25.52;45.72;98974.59;5102821;28;20051;-43
2021/08/08 08:46:24;;;;;;;10.23;4.47;;;;;;;25.56;45.86;98976.09;5100871;28;20044;-43
2021/08/08 08:48:51;;;;;;;12.02;4.57;;;;;;;25.59;45.99;98972.34;5105355;28;20039;-42
2021/08/08 08:51:18;;;;;;;10.02;4.53;;;;;;;25.61;46.32;98981.06;5114089;27;20039;-41
2021/08/08 08:53:45;;;;;;;9.38;4.35;;;;;;;25.61;46.04;98975.75;5097611;28;20051;-41
2021/08/08 08:56:13;;;;;;;9.50;4.20;;;;;;;25.59;46.38;98978.53;5123811;28;20035;-41
2021/08/08 08:58:40;;;;;;;7.72;3.90;;;;;;;25.58;46.54;98974.16;5118863;27;20106;-41
2021/08/08 09:01:07;;;;;;;10.85;4.35;;;;;;;25.60;46.40;98976.72;5114692;28;20067;-42
2021/08/08 09:03:34;;;;;;;8.85;3.88;;;;;;;25.58;46.56;98983.97;5107918;28;20055;-42
2021/08/08 09:06:00;;;;;;;76.70;10.23;;;;;;;25.62;46.88;98983.63;5106615;28;20172;-39
2021/08/08 09:08:27;;;;;;;13.57;4.55;;;;;;;25.68;46.66;98991.19;5102244;28;20097;-40
2021/08/08 09:11:03;;;;;;;15.52;4.57;;;;;;;25.69;46.84;98982.25;5106171;28;20104;-41
2021/08/08 09:13:31;;;;;;;13.00;4.60;;;;;;;25.67;47.04;98976.16;5108177;28;20056;-42
2021/08/08 09:15:58;;;;;;;20.45;5.60;;;;;;;25.74;46.83;98976.56;5094663;28;20048;-41
2021/08/08 09:18:25;;;;;;;10.25;4.38;;;;;;;25.73;47.09;98981.06;5094590;28;20067;-42
2021/08/08 09:20:52;;;;;;;14.05;4.32;;;;;;;25.77;47.09;98980.84;5093337;28;20044;-41
2021/08/08 09:23:19;;;;;;;9.98;4.63;;;;;;;25.81;46.97;98982.31;5079922;28;20036;-41
2021/08/08 09:25:50;;;;;;;10.27;4.30;;;;;;;25.82;46.96;98979.50;5094258;28;20090;-42
2021/08/08 09:28:17;;;;;;;15.77;4.50;;;;;;;25.85;47.02;98981.13;5094242;28;20115;-41
2021/08/08 09:30:45;;;;;;;9.18;4.25;;;;;;;25.87;47.09;98965.84;5084308;28;20097;-41
2021/08/08 09:33:12;;;;;;;9.57;4.15;;;;;;;25.91;46.96;98978.03;5089968;28;20486;-41
2021/08/08 09:35:40;;;;;;;9.98;4.43;;;;;;;25.92;46.92;98972.59;5094169;28;20047;-41
2021/08/08 09:38:08;;;;;;;11.50;4.65;;;;;;;25.94;46.72;98977.81;5093214;28;20437;-41
2021/08/08 09:40:36;;;;;;;10.00;4.35;;;;;;;25.95;46.84;98970.66;5093816;28;20523;-40
2021/08/08 09:43:04;;;;;;;10.52;3.97;;;;;;;25.98;46.93;98973.94;5094004;28;20052;-43
2021/08/08 09:45:35;;;;;;;9.50;4.30;;;;;;;26.02;47.04;98975.44;5093886;28;20047;-42
2021/08/08 09:48:04;;;;;;;8.32;4.10;;;;;;;26.05;46.61;98977.00;5094325;28;20405;-41
2021/08/08 09:50:32;;;;;;;8.48;4.07;;;;;;;26.05;46.68;98969.00;5093694;28;20578;-41
2021/08/08 09:52:59;;;;;;;9.77;4.47;;;;;;;26.08;46.32;98979.47;5094026;28;20093;-42
2021/08/08 09:55:28;;;;;;;9.98;4.20;;;;;;;26.10;46.44;98975.69;5093649;28;20048;-42
2021/08/08 09:57:54;;;;;;;9.65;4.60;;;;;;;26.12;46.72;98979.09;5076168;28;20103;-43
2021/08/08 10:00:25;;;;;;;8.45;4.38;;;;;;;26.16;46.54;98987.75;5088362;28;20044;-41
2021/08/08 10:02:52;;;;;;;9.35;4.55;;;;;;;26.18;46.52;98979.63;5093232;28;20052;-42
2021/08/08 10:05:20;;;;;;;11.32;4.43;;;;;;;26.21;46.35;98979.38;5105139;28;20394;-41
2021/08/08 10:07:47;;;;;;;9.35;4.75;;;;;;;26.18;46.74;98983.13;5094669;28;20109;-41
2021/08/08 10:10:14;;;;;;;10.07;4.68;;;;;;;26.28;46.47;98980.63;5093411;28;20047;-42
2021/08/08 10:13:02;;;;;;;8.93;4.45;;;;;;;26.25;46.67;98980.84;5092261;28;20093;-41
2021/08/08 10:15:29;;;;;;;10.90;4.60;;;;;;;26.31;46.42;98985.75;5082921;28;20093;-41
2021/08/08 10:17:55;;;;;;;11.32;4.72;;;;;;;26.28;46.51;98984.16;5093265;28;20097;-41
2021/08/08 10:20:24;;;;;;;10.57;4.90;;;;;;;26.30;46.00;98982.22;5085557;28;20102;-41
2021/08/08 10:22:50;;;;;;;10.30;4.90;;;;;;;26.34;45.97;98982.84;5087318;28;20109;-41
2021/08/08 10:25:18;;;;;;;9.85;4.70;;;;;;;26.37;46.06;98987.97;5092897;28;20040;-42
2021/08/08 10:27:45;;;;;;;13.30;5.25;;;;;;;26.39;46.21;98979.84;5091973;28;20040;-41
2021/08/08 10:30:12;;;;;;;11.60;5.63;;;;;;;26.38;46.18;98978.97;5093408;28;20044;-40
2021/08/08 10:32:38;;;;;;;11.75;5.38;;;;;;;26.41;46.03;98983.25;5083860;28;20040;-42
2021/08/08 10:35:12;;;;;;;16.83;5.70;;;;;;;26.43;46.87;98983.97;5078744;28;20093;-41
2021/08/08 10:37:41;;;;;;;12.55;5.60;;;;;;;26.42;46.83;98980.44;5092942;28;20040;-41
2021/08/08 10:40:08;;;;;;;13.07;6.03;;;;;;;26.48;46.90;98971.09;5084435;28;20458;-41
2021/08/08 10:42:41;;;;;;;13.63;5.90;;;;;;;26.46;46.81;98968.56;5105956;28;20047;-41
2021/08/08 10:45:09;;;;;;;14.32;6.07;;;;;;;26.46;47.23;98967.69;5094114;28;20048;-41
2021/08/08 10:47:36;;;;;;;10.85;5.53;;;;;;;26.45;47.18;98966.84;5100365;28;20100;-42
2021/08/08 10:50:09;;;;;;;13.85;5.40;;;;;;;26.53;46.60;98967.13;5100285;28;20040;-42
2021/08/08 10:52:41;;;;;;;10.87;5.37;;;;;;;26.51;47.06;98962.88;5102794;28;20090;-42
2021/08/08 10:55:08;;;;;;;12.77;5.38;;;;;;;26.58;47.03;98971.25;5101437;28;20040;-42
2021/08/08 10:57:41;;;;;;;12.20;4.60;;;;;;;26.63;46.58;98974.47;5096597;28;20094;-41
2021/08/08 11:00:13;;;;;;;10.77;4.57;;;;;;;26.64;46.73;98968.16;5083821;28;20041;-41
2021/08/08 11:02:40;;;;;;;11.90;4.65;;;;;;;26.60;46.80;98969.34;5092779;28;20052;-41
2021/08/08 11:05:12;;;;;;;10.13;4.20;;;;;;;26.71;46.59;98966.69;5092755;28;20134;-41
2021/08/08 11:07:39;;;;;;;11.60;4.43;;;;;;;26.70;46.41;98975.72;5090778;28;20113;-41
2021/08/08 11:10:08;;;;;;;8.45;4.30;;;;;;;26.73;46.30;98971.94;5078678;28;20039;-41
2021/08/08 11:12:36;;;;;;;30.27;4.97;;;;;;;26.73;46.40;98959.41;5083790;28;20048;-42
2021/08/08 11:15:04;;;;;;;11.18;4.45;;;;;;;26.73;46.62;98964.75;5098201;28;20079;-41
2021/08/08 11:17:31;;;;;;;13.55;4.38;;;;;;;26.74;46.17;98971.81;5101223;28;20048;-42
2021/08/08 11:19:58;;;;;;;8.88;3.88;;;;;;;26.78;46.34;98961.75;5103266;28;20448;-42
2021/08/08 11:22:25;;;;;;;7.20;3.67;;;;;;;26.77;46.39;98955.53;5108337;28;20115;-43
2021/08/08 11:24:58;;;;;;;8.63;4.07;;;;;;;26.80;46.57;98963.31;5102067;28;21721;-42
2021/08/08 11:27:31;;;;;;;13.57;4.60;;;;;;;26.82;46.42;98963.22;5092209;28;20068;-41
2021/08/08 11:29:58;;;;;;;14.82;4.80;;;;;;;26.78;46.96;98962.59;5098852;28;20117;-41
2021/08/08 11:32:27;;;;;;;21.02;5.68;;;;;;;26.82;46.66;98958.72;5096555;28;20039;-41
2021/08/08 11:35:00;;;;;;;22.92;5.60;;;;;;;26.86;47.08;98965.50;5102588;28;20048;-43
2021/08/08 11:37:30;;;;;;;19.52;5.10;;;;;;;26.86;46.76;98953.97;5085030;28;20448;-42
2021/08/08 11:39:57;;;;;;;17.85;4.93;;;;;;;26.87;46.56;98963.69;5099259;28;20043;-42
2021/08/08 11:42:30;;;;;;;15.88;4.50;;;;;;;26.90;46.72;98966.13;5096701;28;20489;-41
2021/08/08 11:44:57;;;;;;;11.27;4.97;;;;;;;26.95;46.30;98957.75;5091897;28;20409;-41
2021/08/08 11:47:25;;;;;;;9.07;4.60;;;;;;;26.96;46.56;98967.47;5091725;28;21005;-42
2021/08/08 11:49:51;;;;;;;11.02;4.90;;;;;;;26.93;46.31;98957.88;5091973;28;20047;-43
2021/08/08 11:52:20;;;;;;;10.60;4.20;;;;;;;27.02;46.31;98964.31;5090964;28;20040;-39
2021/08/08 11:54:47;;;;;;;12.75;4.50;;;;;;;27.10;46.52;98967.22;5091487;28;20429;-39
2021/08/08 11:57:24;;;;;;;7.60;4.03;;;;;;;27.10;45.95;98961.88;5097795;28;20036;-40
2021/08/08 11:59:52;;;;;;;8.98;4.38;;;;;;;27.09;46.74;98968.22;5084790;28;20075;-39
2021/08/08 12:02:19;;;;;;;8.88;3.90;;;;;;;27.16;46.33;98966.78;5091710;28;20093;-40
2021/08/08 12:04:46;;;;;;;7.88;4.03;;;;;;;27.16;46.36;98966.78;5093216;28;20097;-39
2021/08/08 12:07:13;;;;;;;9.15;3.90;;;;;;;27.22;46.06;98966.28;5080999;28;20049;-40
2021/08/08 12:09:46;;;;;;;10.73;4.47;;;;;;;27.28;46.02;98971.16;5075139;28;20097;-40
2021/08/08 12:12:12;;;;;;;8.57;3.97;;;;;;;27.24;46.17;98963.50;5081300;28;20053;-40
2021/08/08 12:14:39;;;;;;;11.23;4.18;;;;;;;27.28;45.91;98975.69;5074285;28;20395;-39
2021/08/08 12:17:08;;;;;;;11.35;3.92;;;;;;;27.29;45.28;98967.50;5091832;28;20089;-40
2021/08/08 12:19:36;;;;;;;8.75;4.03;;;;;;;27.35;45.49;98970.69;5091916;28;20048;-40
2021/08/08 12:22:05;;;;;;;9.60;3.70;;;;;;;27.44;44.05;98967.28;5091184;28;20041;-40
2021/08/08 12:24:35;;;;;;;12.77;4.07;;;;;;;27.41;44.40;98970.19;5091386;28;20489;-40
2021/08/08 12:27:02;;;;;;;11.70;3.60;;;;;;;27.37;44.75;98968.72;5082636;28;20098;-40
2021/08/08 12:29:30;;;;;;;12.57;3.85;;;;;;;27.37;44.97;98968.72;5080017;28;20071;-40
2021/08/08 12:32:05;;;;;;;14.13;4.05;;;;;;;27.38;45.22;98970.44;5090475;28;20456;-41
2021/08/08 12:37:42;;;;;;;7.18;3.30;;;;;;;27.33;45.63;98978.81;5150605;27;20175;-39
2021/08/08 12:40:10;;;;;;;8.95;3.75;;;;;;;27.35;45.42;98973.34;5150914;27;20039;-39
2021/08/08 12:42:37;;;;;;;15.93;4.22;;;;;;;27.34;45.60;98983.22;5150534;27;20046;-40
2021/08/08 12:45:07;;;;;;;21.35;4.85;;;;;;;27.34;45.74;98990.41;5150669;27;20110;-40
2021/08/08 12:47:35;;;;;;;12.48;4.50;;;;;;;27.35;45.43;98982.22;5137948;27;20082;-40
2021/08/08 12:50:12;;;;;;;17.23;5.00;;;;;;;27.35;45.23;98987.56;5150388;27;20059;-40
2021/08/08 12:52:38;;;;;;;14.45;5.00;;;;;;;27.34;45.55;98985.03;5130085;27;20108;-40
2021/08/08 12:55:08;;;;;;;11.63;4.55;;;;;;;27.30;46.07;98989.78;5143993;27;20043;-40
2021/08/08 12:57:34;;;;;;;12.52;4.72;;;;;;;27.29;45.61;98991.59;5129811;27;20108;-40
2021/08/08 13:00:01;;;;;;;7.95;3.78;;;;;;;27.40;45.23;98996.09;5142324;27;20047;-40
2021/08/08 13:02:28;;;;;;;8.55;3.83;;;;;;;27.37;45.70;98990.13;5135823;27;20047;-40
2021/08/08 13:04:55;;;;;;;7.60;3.50;;;;;;;27.38;45.57;98987.34;5139295;27;20047;-40
2021/08/08 13:07:21;;;;;;;8.55;3.70;;;;;;;27.32;45.58;98987.84;5146997;27;20043;-40
2021/08/08 13:09:49;;;;;;;7.55;3.42;;;;;;;27.37;45.19;98995.47;5145385;27;20039;-40
2021/08/08 13:12:18;;;;;;;6.18;3.30;;;;;;;27.37;45.33;98996.31;5141196;27;20039;-40
2021/08/08 13:14:44;;;;;;;6.18;3.42;;;;;;;27.36;45.37;98991.97;5135659;27;20103;-40
2021/08/08 13:17:11;;;;;;;6.95;3.55;;;;;;;27.34;45.77;98993.06;5139922;27;20115;-40
2021/08/08 13:19:38;;;;;;;6.32;3.30;;;;;;;27.35;45.90;98998.28;5131176;27;20047;-40
2021/08/08 13:22:06;;;;;;;5.65;3.35;;;;;;;27.41;45.71;99002.28;5142107;27;20048;-40
2021/08/08 13:24:33;;;;;;;10.02;3.80;;;;;;;27.47;45.38;99002.66;5143705;27;20049;-40
2021/08/08 13:27:00;;;;;;;6.38;3.65;;;;;;;27.42;45.81;99012.03;5135667;27;20043;-40
2021/08/08 13:29:28;;;;;;;5.47;3.50;;;;;;;27.45;45.65;99003.75;5137106;27;20092;-40
2021/08/08 13:31:54;;;;;;;6.60;3.60;;;;;;;27.44;45.75;99002.06;5148862;27;20092;-40
2021/08/08 13:34:21;;;;;;;7.05;3.60;;;;;;;27.47;45.63;98999.13;5149738;27;20450;-40
2021/08/08 13:36:48;;;;;;;5.30;3.20;;;;;;;27.50;45.48;98998.88;5149659;27;20107;-40
2021/08/08 13:39:15;;;;;;;7.85;3.78;;;;;;;27.52;45.63;99004.13;5149743;27;20039;-40
2021/08/08 13:41:42;;;;;;;6.63;3.40;;;;;;;27.54;45.69;98997.66;5148501;27;20043;-40
2021/08/08 13:44:08;;;;;;;5.95;3.70;;;;;;;27.55;45.46;98995.81;5136974;27;20042;-40
2021/08/08 13:46:36;;;;;;;6.45;3.80;;;;;;;27.55;45.80;98986.00;5135561;27;20087;-40
2021/08/08 13:49:03;;;;;;;6.80;3.70;;;;;;;27.51;45.85;98987.22;5135506;27;20099;-40
2021/08/08 13:51:30;;;;;;;7.78;3.70;;;;;;;27.54;46.09;98992.31;5123233;27;20097;-40
2021/08/08 13:53:57;;;;;;;7.35;3.55;;;;;;;27.57;45.65;98986.72;5129675;27;20040;-40
2021/08/08 13:56:23;;;;;;;7.75;3.80;;;;;;;27.60;45.91;98991.81;5125563;27;20051;-40
2021/08/08 13:58:50;;;;;;;6.15;3.67;;;;;;;27.59;45.73;98984.78;5120994;27;20120;-40
2021/08/08 14:01:17;;;;;;;7.25;3.95;;;;;;;27.62;45.70;98989.03;5126588;27;20044;-40
2021/08/08 14:03:45;;;;;;;5.95;3.80;;;;;;;27.63;45.85;98988.06;5129094;27;20047;-40
2021/08/08 14:06:12;;;;;;;5.95;3.70;;;;;;;27.62;45.38;98984.50;5122184;27;20041;-40
2021/08/08 14:08:38;;;;;;;5.90;3.60;;;;;;;27.63;45.72;98985.38;5134030;27;20047;-40
2021/08/08 14:11:05;;;;;;;7.13;3.70;;;;;;;27.65;45.73;98991.47;5120832;27;20051;-40
2021/08/08 14:13:32;;;;;;;6.57;3.70;;;;;;;27.67;45.40;98987.66;5127274;27;20481;-40
2021/08/08 14:15:59;;;;;;;8.80;3.80;;;;;;;27.65;45.84;98989.63;5128780;27;20091;-40
2021/08/08 14:18:26;;;;;;;9.63;3.85;;;;;;;27.69;45.51;98985.72;5120466;27;20039;-40
2021/08/08 14:20:54;;;;;;;6.28;3.53;;;;;;;27.70;45.80;98986.56;5123195;27;20039;-43
2021/08/08 14:23:20;;;;;;;6.45;3.65;;;;;;;27.72;45.54;98987.28;5129064;27;20494;-40
2021/08/08 14:25:47;;;;;;;5.88;3.63;;;;;;;27.79;45.94;98984.97;5123810;27;20560;-40
2021/08/08 14:28:14;;;;;;;7.13;4.05;;;;;;;27.83;45.38;98989.09;5134983;27;20047;-40
2021/08/08 14:30:40;;;;;;;6.07;3.58;;;;;;;27.89;45.11;98985.94;5134797;27;20046;-40
2021/08/08 14:33:08;;;;;;;8.75;4.03;;;;;;;27.89;45.15;98989.47;5134889;27;20076;-40
2021/08/08 14:35:34;;;;;;;6.63;3.70;;;;;;;27.92;44.97;98980.38;5127775;27;20059;-40
2021/08/08 14:38:03;;;;;;;8.50;3.88;;;;;;;27.99;45.00;98980.69;5127605;27;20450;-40
2021/08/08 14:40:30;;;;;;;6.68;3.63;;;;;;;28.00;45.09;98977.91;5120310;27;20478;-40
2021/08/08 14:42:56;;;;;;;6.82;3.88;;;;;;;27.98;44.91;98979.84;5122921;27;20072;-40
2021/08/08 14:45:23;;;;;;;7.78;3.92;;;;;;;27.99;44.97;98978.84;5128130;27;20145;-40
2021/08/08 14:47:50;;;;;;;7.00;4.05;;;;;;;27.94;45.18;98977.56;5124315;27;20051;-40
2021/08/08 14:50:16;;;;;;;6.93;3.92;;;;;;;27.87;45.21;98975.34;5120078;27;20096;-40
2021/08/08 14:52:43;;;;;;;7.32;3.75;;;;;;;27.84;45.27;98972.06;5134245;27;20107;-40
2021/08/08 14:55:12;;;;;;;6.57;3.80;;;;;;;27.79;45.58;98969.75;5119826;27;20494;-40
2021/08/08 14:57:38;;;;;;;6.38;3.65;;;;;;;27.78;45.44;98964.53;5127723;27;20043;-40
2021/08/08 15:00:06;;;;;;;6.20;3.50;;;;;;;27.77;45.52;98976.22;5125742;27;20051;-40
2021/08/08 15:02:33;;;;;;;7.03;3.85;;;;;;;27.74;45.29;98971.09;5119721;27;20099;-40
2021/08/08 15:05:00;;;;;;;7.32;4.00;;;;;;;27.73;46.03;98967.59;5123224;27;20043;-40
2021/08/08 15:07:26;;;;;;;6.07;3.70;;;;;;;27.74;45.86;98971.09;5131363;27;20493;-40
2021/08/08 15:09:53;;;;;;;7.38;3.60;;;;;;;27.75;45.80;98967.47;5128263;27;20051;-40
2021/08/08 15:12:21;;;;;;;5.95;3.70;;;;;;;27.74;45.30;98961.25;5125687;27;20043;-40
2021/08/08 15:14:48;;;;;;;6.38;3.70;;;;;;;27.77;45.37;98960.16;5119566;27;20120;-40
2021/08/08 15:17:15;;;;;;;7.60;3.90;;;;;;;27.75;45.69;98960.28;5123404;27;20049;-40
2021/08/08 15:19:41;;;;;;;6.13;3.53;;;;;;;27.73;45.60;98954.22;5130335;27;20116;-40
2021/08/08 15:22:08;;;;;;;5.55;3.60;;;;;;;27.74;45.57;98958.56;5133830;27;20043;-40
2021/08/08 15:24:35;;;;;;;7.30;3.95;;;;;;;27.75;45.92;98962.13;5133627;27;20047;-40
2021/08/08 15:27:01;;;;;;;7.22;3.92;;;;;;;27.79;45.84;98967.09;5127154;27;20047;-40
2021/08/08 15:29:30;;;;;;;6.22;3.60;;;;;;;27.81;45.65;98962.44;5126062;27;20043;-40
2021/08/08 15:31:57;;;;;;;6.55;3.83;;;;;;;27.80;45.82;98968.81;5119308;27;20092;-40
2021/08/08 15:34:24;;;;;;;6.47;3.80;;;;;;;27.81;45.40;98966.97;5122023;27;20101;-40
2021/08/08 15:36:51;;;;;;;7.35;3.70;;;;;;;27.77;45.54;98962.84;5127058;27;20574;-40
2021/08/08 15:39:17;;;;;;;7.82;3.60;;;;;;;27.74;46.00;98965.75;5122938;27;20103;-40
2021/08/08 15:41:44;;;;;;;7.10;3.60;;;;;;;27.72;45.99;98970.38;5133239;27;20043;-40
2021/08/08 15:44:11;;;;;;;7.60;3.80;;;;;;;27.67;45.79;98971.63;5133652;27;20095;-40
2021/08/08 15:46:39;;;;;;;6.88;3.63;;;;;;;27.69;45.76;98966.16;5119089;27;20047;-40
2021/08/08 15:49:06;;;;;;;6.63;3.70;;;;;;;27.65;46.28;98962.88;5119587;27;20038;-40
2021/08/08 15:51:32;;;;;;;8.52;3.95;;;;;;;27.66;46.12;98975.25;5120387;27;20043;-40
2021/08/08 15:53:59;;;;;;;5.93;3.65;;;;;;;27.62;45.93;98970.28;5127296;27;20101;-40
2021/08/08 15:56:26;;;;;;;8.50;4.13;;;;;;;27.60;46.49;98975.75;5123482;27;20043;-40
2021/08/08 15:58:53;;;;;;;6.60;4.00;;;;;;;27.57;46.77;98981.38;5118668;27;20064;-40
2021/08/08 16:01:19;;;;;;;9.68;4.03;;;;;;;27.59;46.54;98989.28;5123954;27;20470;-40
2021/08/08 16:03:47;;;;;;;8.32;3.97;;;;;;;27.57;46.23;98992.06;5127186;27;20039;-40
2021/08/08 16:06:14;;;;;;;10.13;4.00;;;;;;;27.56;46.71;98989.53;5120096;27;20095;-40
2021/08/08 16:08:41;;;;;;;6.20;4.00;;;;;;;27.53;46.55;98992.44;5132945;27;20100;-40
2021/08/08 16:11:11;;;;;;;8.32;4.30;;;;;;;27.52;46.59;98983.56;5118481;27;20051;-40
2021/08/08 16:13:38;;;;;;;8.05;4.25;;;;;;;27.54;46.69;98992.31;5124640;27;20070;-40
2021/08/08 16:16:05;;;;;;;7.07;3.95;;;;;;;27.52;46.75;98991.59;5126702;27;20047;-41
2021/08/08 16:18:32;;;;;;;7.35;4.15;;;;;;;27.51;46.84;98989.91;5112693;28;20047;-40
2021/08/08 16:21:00;;;;;;;6.47;3.88;;;;;;;27.47;46.70;98975.91;5125369;27;20557;-40
2021/08/08 16:23:27;;;;;;;7.88;4.15;;;;;;;27.43;46.98;98985.16;5112921;27;20563;-40
2021/08/08 16:25:54;;;;;;;8.43;4.20;;;;;;;27.46;46.95;98986.72;5123837;27;20063;-40
2021/08/08 16:28:21;;;;;;;8.60;4.00;;;;;;;27.44;46.69;98989.53;5132953;27;20039;-40
2021/08/08 16:30:47;;;;;;;7.95;4.07;;;;;;;27.44;46.86;98991.34;5123016;27;20097;-40
2021/08/08 16:33:14;;;;;;;7.32;4.55;;;;;;;27.40;46.96;98990.75;5126818;27;20206;-40
2021/08/08 16:35:41;;;;;;;6.30;3.95;;;;;;;27.37;47.35;98996.31;5120272;28;20055;-40
2021/08/08 16:38:09;;;;;;;6.63;4.03;;;;;;;27.37;47.12;98992.81;5118296;28;20043;-40
2021/08/08 16:40:35;;;;;;;6.43;4.00;;;;;;;27.34;47.08;98995.75;5112097;28;20104;-40
2021/08/08 16:43:02;;;;;;;7.70;4.35;;;;;;;27.35;47.63;99002.78;5125067;28;20047;-40
2021/08/08 16:45:29;;;;;;;7.20;4.20;;;;;;;27.33;47.32;98999.38;5117944;28;20088;-40
2021/08/08 16:47:56;;;;;;;8.43;3.97;;;;;;;27.33;46.97;99002.06;5122083;28;20094;-40
2021/08/08 16:50:23;;;;;;;7.22;4.00;;;;;;;27.33;47.32;99010.06;5126250;28;20100;-40
2021/08/08 16:52:49;;;;;;;6.57;3.80;;;;;;;27.30;47.59;99009.34;5121326;28;20047;-40
2021/08/08 16:55:17;;;;;;;10.65;4.22;;;;;;;27.29;47.59;99007.63;5117847;28;20542;-40
2021/08/08 16:57:44;;;;;;;7.15;4.07;;;;;;;27.28;47.36;99000.59;5124710;28;20093;-40
2021/08/08 17:00:11;;;;;;;6.30;3.75;;;;;;;27.26;47.52;99004.38;5126093;28;20101;-40
2021/08/08 17:02:38;;;;;;;8.98;4.25;;;;;;;27.27;47.79;99000.72;5118007;28;20469;-40
2021/08/08 17:05:06;;;;;;;7.00;4.18;;;;;;;27.23;47.68;99000.06;5120117;28;20116;-40
2021/08/08 17:07:32;;;;;;;6.43;4.07;;;;;;;27.21;47.70;98996.66;5130181;28;20446;-40
2021/08/08 17:10:00;;;;;;;7.18;4.05;;;;;;;27.19;47.48;98998.59;5125991;28;20043;-41
2021/08/08 17:12:28;;;;;;;6.10;3.80;;;;;;;27.18;47.54;98996.91;5124571;28;20055;-40
2021/08/08 17:14:55;;;;;;;7.22;4.03;;;;;;;27.17;48.17;98989.00;5117846;28;20039;-40
2021/08/08 17:17:22;;;;;;;5.78;3.83;;;;;;;27.17;47.88;98994.34;5132136;28;20051;-39
2021/08/08 17:19:49;;;;;;;6.43;3.88;;;;;;;27.16;47.87;98990.84;5132428;28;20043;-40
2021/08/08 17:22:15;;;;;;;6.78;4.05;;;;;;;27.15;48.04;98999.81;5132583;27;20039;-40
2021/08/08 17:24:42;;;;;;;8.20;4.10;;;;;;;27.14;48.39;98998.09;5121720;27;20124;-40
2021/08/08 17:27:09;;;;;;;6.57;3.92;;;;;;;27.15;48.31;99007.00;5128125;27;20069;-40
2021/08/08 17:29:37;;;;;;;6.55;3.88;;;;;;;27.13;48.06;99009.78;5129643;27;20489;-40
2021/08/08 17:32:05;;;;;;;7.60;4.50;;;;;;;27.12;48.15;99005.41;5114060;28;20088;-40
2021/08/08 17:34:32;;;;;;;6.18;3.88;;;;;;;27.11;48.04;99012.56;5128277;27;20047;-40
2021/08/08 17:36:58;;;;;;;7.57;4.05;;;;;;;27.09;47.93;99016.34;5121070;27;20473;-40
2021/08/08 17:39:25;;;;;;;7.95;4.03;;;;;;;27.08;48.26;99026.22;5125097;27;20039;-40
2021/08/08 17:41:56;;;;;;;6.63;4.00;;;;;;;27.06;48.17;99020.13;5129433;27;20073;-40
2021/08/08 17:44:23;;;;;;;6.80;3.95;;;;;;;27.04;48.42;99015.84;5124759;27;20039;-40
2021/08/08 17:46:51;;;;;;;6.85;4.20;;;;;;;27.05;48.63;99022.91;5121131;27;20052;-40
2021/08/08 17:49:17;;;;;;;6.38;4.30;;;;;;;27.02;48.41;99020.47;5127488;27;20044;-40
2021/08/08 17:51:44;;;;;;;7.30;4.30;;;;;;;27.00;48.48;99015.22;5129335;27;20099;-40
2021/08/08 17:54:11;;;;;;;7.25;4.22;;;;;;;26.98;48.77;99013.66;5115090;28;20105;-40
2021/08/08 17:56:38;;;;;;;6.63;4.07;;;;;;;26.98;48.66;99005.63;5128011;27;20047;-40
2021/08/08 17:59:04;;;;;;;8.13;4.30;;;;;;;26.97;48.78;99017.28;5121067;27;20542;-40
2021/08/08 18:01:31;;;;;;;8.52;4.40;;;;;;;26.94;48.89;99015.72;5124962;27;20043;-40
2021/08/08 18:03:59;;;;;;;8.57;4.53;;;;;;;26.92;49.02;99009.63;5129214;27;20043;-40
2021/08/08 18:06:26;;;;;;;7.82;4.32;;;;;;;26.94;48.92;99020.22;5124040;27;20060;-40
2021/08/08 18:08:53;;;;;;;7.65;4.78;;;;;;;26.91;48.83;99024.84;5135618;27;20043;-40
2021/08/08 18:11:20;;;;;;;8.25;4.63;;;;;;;26.90;49.17;99031.13;5120009;27;20134;-40
2021/08/08 18:13:47;;;;;;;9.32;4.70;;;;;;;26.89;49.17;99034.78;5129516;27;20035;-40
2021/08/08 18:16:14;;;;;;;36.67;7.28;;;;;;;26.91;49.50;99032.00;5114552;28;20701;-40
2021/08/08 18:18:40;;;;;;;22.77;5.45;;;;;;;26.90;49.54;99038.31;5122741;27;20100;-41
2021/08/08 18:21:08;;;;;;;16.27;5.05;;;;;;;26.90;49.69;99047.19;5129821;27;20450;-40
2021/08/08 18:23:35;;;;;;;18.73;4.85;;;;;;;26.91;49.94;99048.91;5114827;28;20043;-40
2021/08/08 18:26:02;;;;;;;11.60;4.90;;;;;;;26.92;49.98;99045.22;5127129;27;20620;-41
2021/08/08 18:28:28;;;;;;;11.80;4.68;;;;;;;26.92;50.50;99055.94;5116271;27;20104;-41
2021/08/08 18:30:55;;;;;;;9.45;4.60;;;;;;;26.94;50.60;99053.16;5116327;27;20035;-41
2021/08/08 18:33:22;;;;;;;10.45;4.63;;;;;;;26.96;50.09;99055.72;5120062;27;20550;-40
2021/08/08 18:35:49;;;;;;;10.88;4.55;;;;;;;26.95;50.64;99059.34;5124647;27;20055;-41
2021/08/08 18:38:17;;;;;;;12.45;4.95;;;;;;;26.96;50.68;99059.22;5114876;27;20052;-41
2021/08/08 18:40:43;;;;;;;13.68;4.80;;;;;;;26.96;50.75;99061.06;5127033;27;20096;-41
2021/08/08 18:43:10;;;;;;;8.75;4.65;;;;;;;26.96;49.96;99063.72;5127551;27;20450;-40
2021/08/08 18:45:37;;;;;;;12.30;4.50;;;;;;;26.96;50.65;99066.41;5113725;28;20100;-40
2021/08/08 18:48:04;;;;;;;11.73;4.85;;;;;;;26.96;50.82;99061.91;5125924;27;20068;-40
2021/08/08 18:50:31;;;;;;;16.13;5.22;;;;;;;26.97;51.39;99068.09;5120019;27;20084;-40
2021/08/08 18:52:57;;;;;;;12.32;5.50;;;;;;;26.97;51.88;99062.75;5122309;27;20435;-41
2021/08/08 18:55:25;;;;;;;16.67;5.05;;;;;;;26.98;51.54;99075.16;5116580;27;20097;-40
2021/08/08 18:57:52;;;;;;;9.98;4.85;;;;;;;26.98;52.07;99075.16;5125936;27;20112;-41
2021/08/08 19:00:19;;;;;;;10.20;4.80;;;;;;;26.99;52.00;99083.06;5114358;27;20116;-40
2021/08/08 19:02:46;;;;;;;7.93;4.75;;;;;;;26.97;51.90;99086.81;5127641;27;20404;-40
2021/08/08 19:05:12;;;;;;;9.38;4.50;;;;;;;26.97;51.78;99095.69;5126622;27;20058;-40
2021/08/08 19:07:39;;;;;;;10.95;4.88;;;;;;;26.97;52.36;99095.69;5129019;27;20450;-40
2021/08/08 19:10:07;;;;;;;12.65;4.80;;;;;;;26.97;51.77;99084.13;5120989;27;20039;-40
2021/08/08 19:12:35;;;;;;;15.23;4.65;;;;;;;26.98;52.40;99093.88;5121963;27;20092;-40
2021/08/08 19:15:03;;;;;;;10.98;4.93;;;;;;;26.99;53.05;99084.91;5113540;28;20044;-40
2021/08/08 19:17:29;;;;;;;9.30;4.95;;;;;;;26.98;52.81;99084.03;5113554;28;20188;-40
2021/08/08 19:19:56;;;;;;;8.30;4.45;;;;;;;26.97;52.39;99092.16;5127377;27;20044;-40
2021/08/08 19:22:23;;;;;;;9.20;4.55;;;;;;;26.98;52.52;99096.53;5122710;27;20047;-40
2021/08/08 19:24:49;;;;;;;8.73;4.72;;;;;;;26.97;53.13;99098.38;5115848;27;20043;-40
2021/08/08 19:27:16;;;;;;;9.25;4.47;;;;;;;26.97;52.64;99094.81;5121189;27;20043;-41
2021/08/08 19:29:44;;;;;;;13.77;4.60;;;;;;;26.96;53.26;99101.16;5117362;27;20055;-40
2021/08/08 19:32:11;;;;;;;10.63;4.97;;;;;;;26.95;52.77;99104.78;5119294;27;20047;-41
2021/08/08 19:34:39;;;;;;;8.43;4.75;;;;;;;26.93;53.04;99104.94;5120060;27;20040;-40
2021/08/08 19:37:06;;;;;;;10.63;4.63;;;;;;;26.91;52.88;99107.72;5128665;27;20043;-40
2021/08/08 19:39:33;;;;;;;9.65;4.57;;;;;;;26.90;53.46;99110.50;5115609;27;20047;-40